Time,TemperatureF,DewpointF,PressureIn,WindDirection,WindDirectionDegrees,WindSpeedMPH,WindSpeedGustMPH,Humidity,HourlyPrecipIn,Conditions,Clouds,dailyrainin,SoftwareType,DateUTC
2013-01-25 00:00:00,40.1,22.0,30.03,ENE,75,2.0,2.0,48,0.00,,,0.00,Wunderground v.1.15,2013-01-25 07:00:00,
2013-01-25 00:10:00,39.3,22.7,30.03,WSW,250,1.0,1.0,51,0.00,,,0.00,Wunderground v.1.15,2013-01-25 07:10:00,
2013-01-25 00:25:00,39.0,21.4,30.04,WSW,250,1.0,3.0,49,0.00,,,0.00,Wunderground v.1.15,2013-01-25 07:25:00,
2013-01-25 00:30:00,40.1,22.9,30.03,West,259,2.0,3.0,50,0.00,,,0.00,Wunderground v.1.15,2013-01-25 07:30:00,
2013-01-25 00:40:00,42.9,22.5,30.04,NE,37,2.0,3.0,44,0.00,,,0.00,Wunderground v.1.15,2013-01-25 07:40:00,
2013-01-25 00:50:00,40.3,23.1,30.04,West,264,1.0,1.0,50,0.00,,,0.00,Wunderground v.1.15,2013-01-25 07:50:00,
2013-01-25 00:55:00,40.9,22.2,30.05,NE,46,1.0,1.0,47,0.00,,,0.00,Wunderground v.1.15,2013-01-25 07:55:00,
2013-01-25 01:00:00,39.9,21.3,30.04,WSW,255,0.0,2.0,47,0.00,,,0.00,Wunderground v.1.15,2013-01-25 08:00:00,
2013-01-25 01:05:00,38.5,21.5,30.03,NE,38,1.0,2.0,50,0.00,,,0.00,Wunderground v.1.15,2013-01-25 08:05:00,
2013-01-25 01:15:00,37.4,20.9,30.03,SW,236,1.0,1.0,51,0.00,,,0.00,Wunderground v.1.15,2013-01-25 08:15:00,
2013-01-25 01:30:00,36.5,21.8,30.04,ENE,70,0.0,0.0,55,0.00,,,0.00,Wunderground v.1.15,2013-01-25 08:30:00,
2013-01-25 01:45:00,41.0,23.8,30.04,WNW,283,4.0,4.0,50,0.00,,,0.00,Wunderground v.1.15,2013-01-25 08:45:00,
2013-01-25 01:55:00,40.8,22.1,30.04,ESE,115,1.0,1.0,47,0.00,,,0.00,Wunderground v.1.15,2013-01-25 08:55:00,
2013-01-25 02:05:00,37.5,21.5,30.04,NW,321,1.0,1.0,52,0.00,,,0.00,Wunderground v.1.15,2013-01-25 09:05:00,
2013-01-25 02:10:00,37.0,21.9,30.04,West,271,1.0,1.0,54,0.00,,,0.00,Wunderground v.1.15,2013-01-25 09:10:00,
2013-01-25 02:25:00,38.1,22.9,30.03,West,276,1.0,3.0,54,0.00,,,0.00,Wunderground v.1.15,2013-01-25 09:25:00,
2013-01-25 02:50:00,36.3,22.1,30.05,ENE,78,1.0,1.0,56,0.00,,,0.00,Wunderground v.1.15,2013-01-25 09:50:00,
2013-01-25 03:00:00,35.2,21.5,30.05,West,264,1.0,1.0,57,0.00,,,0.00,Wunderground v.1.15,2013-01-25 10:00:00,
2013-01-25 03:10:00,35.4,21.7,30.05,SW,233,1.0,2.0,57,0.00,,,0.00,Wunderground v.1.15,2013-01-25 10:10:00,
2013-01-25 03:20:00,34.7,21.4,30.05,South,174,0.0,0.0,58,0.00,,,0.00,Wunderground v.1.15,2013-01-25 10:20:00,
2013-01-25 03:30:00,35.6,21.4,30.04,SE,127,1.0,1.0,56,0.00,,,0.00,Wunderground v.1.15,2013-01-25 10:30:00,
2013-01-25 03:45:00,33.3,21.3,30.04,NNE,18,1.0,1.0,61,0.00,,,0.00,Wunderground v.1.15,2013-01-25 10:45:00,
2013-01-25 03:51:00,33.3,21.3,30.04,NNW,334,2.0,2.0,61,0.00,,,0.00,Wunderground v.1.15,2013-01-25 10:51:00,
2013-01-25 04:00:00,33.1,21.9,30.04,West,264,1.0,2.0,63,0.00,,,0.00,Wunderground v.1.15,2013-01-25 11:00:00,
2013-01-25 04:10:00,35.0,21.7,30.04,ENE,63,2.0,2.0,58,0.00,,,0.00,Wunderground v.1.15,2013-01-25 11:10:00,
2013-01-25 04:30:00,34.2,21.4,30.04,SSE,148,1.0,1.0,59,0.00,,,0.00,Wunderground v.1.15,2013-01-25 11:30:00,
2013-01-25 04:40:00,33.7,21.7,30.04,South,174,0.0,0.0,61,0.00,,,0.00,Wunderground v.1.15,2013-01-25 11:40:00,
2013-01-25 04:55:00,33.6,20.8,30.05,ENE,78,1.0,1.0,59,0.00,,,0.00,Wunderground v.1.15,2013-01-25 11:55:00,
2013-01-25 05:05:00,31.9,21.1,30.04,North,349,0.0,0.0,64,0.00,,,0.00,Wunderground v.1.15,2013-01-25 12:05:00,
2013-01-25 05:20:00,36.3,24.1,30.05,NNW,327,2.0,2.0,61,0.00,,,0.00,Wunderground v.1.15,2013-01-25 12:20:00,
2013-01-25 05:25:00,36.9,21.8,30.04,ESE,103,2.0,2.0,54,0.00,,,0.00,Wunderground v.1.15,2013-01-25 12:25:00,
2013-01-25 05:35:00,37.3,23.4,30.04,West,274,2.0,2.0,57,0.00,,,0.00,Wunderground v.1.15,2013-01-25 12:35:00,
2013-01-25 05:45:00,39.1,23.8,30.04,North,5,3.0,3.0,54,0.00,,,0.00,Wunderground v.1.15,2013-01-25 12:45:00,
2013-01-25 05:55:00,39.3,22.7,30.04,ENE,75,2.0,2.0,51,0.00,,,0.00,Wunderground v.1.15,2013-01-25 12:55:00,
2013-01-25 06:00:00,36.7,21.2,30.04,NNW,346,2.0,2.0,53,0.00,,,0.00,Wunderground v.1.15,2013-01-25 13:00:00,
2013-01-25 06:10:00,34.4,21.5,30.05,ESE,107,0.0,1.0,59,0.00,,,0.00,Wunderground v.1.15,2013-01-25 13:10:00,
2013-01-25 06:25:00,32.1,20.9,30.06,SSE,152,0.0,1.0,63,0.00,,,0.00,Wunderground v.1.15,2013-01-25 13:25:00,
2013-01-25 06:50:00,32.3,21.5,30.06,West,274,0.0,2.0,64,0.00,,,0.00,Wunderground v.1.15,2013-01-25 13:50:00,
2013-01-25 07:00:00,33.3,21.3,30.06,SE,142,1.0,1.0,61,0.00,,,0.00,Wunderground v.1.15,2013-01-25 14:00:00,
2013-01-25 07:20:00,30.6,20.6,30.06,East,92,0.0,0.0,66,0.00,,,0.00,Wunderground v.1.15,2013-01-25 14:20:00,
2013-01-25 07:25:00,30.8,20.4,30.06,NE,45,0.0,1.0,65,0.00,,,0.00,Wunderground v.1.15,2013-01-25 14:25:00,
2013-01-25 07:40:00,35.3,22.8,30.06,West,281,3.0,3.0,60,0.00,,,0.00,Wunderground v.1.15,2013-01-25 14:40:00,
2013-01-25 07:55:00,34.3,21.8,30.06,WSW,256,0.0,3.0,60,0.00,,,0.00,Wunderground v.1.15,2013-01-25 14:55:00,
2013-01-25 08:05:00,34.4,21.9,30.06,ENE,57,2.0,3.0,60,0.00,,,0.00,Wunderground v.1.15,2013-01-25 15:05:00,
2013-01-25 08:30:00,34.9,22.0,30.06,SE,132,0.0,0.0,59,0.00,,,0.00,Wunderground v.1.15,2013-01-25 15:30:00,
2013-01-25 08:35:00,35.6,22.3,30.06,SE,134,0.0,0.0,58,0.00,,,0.00,Wunderground v.1.15,2013-01-25 15:35:00,
2013-01-25 08:40:00,37.1,23.3,30.06,SE,134,0.0,0.0,57,0.00,,,0.00,Wunderground v.1.15,2013-01-25 15:40:00,
2013-01-25 08:50:00,39.6,23.9,30.06,SE,129,0.0,0.0,53,0.00,,,0.00,Wunderground v.1.15,2013-01-25 15:50:00,
2013-01-25 08:55:00,41.5,24.2,30.06,SE,143,0.0,1.0,50,0.00,,,0.00,Wunderground v.1.15,2013-01-25 15:55:00,
2013-01-25 09:05:00,41.5,24.2,30.06,ENE,75,1.0,1.0,50,0.00,,,0.00,Wunderground v.1.15,2013-01-25 16:05:00,
2013-01-25 09:15:00,42.3,23.5,30.06,ENE,78,1.0,1.0,47,0.00,,,0.00,Wunderground v.1.15,2013-01-25 16:15:00,
2013-01-25 09:35:00,42.9,24.0,30.06,East,91,1.0,1.0,47,0.00,,,0.00,Wunderground v.1.15,2013-01-25 16:35:00,
2013-01-25 09:40:00,42.6,24.3,30.06,ENE,74,1.0,1.0,48,0.00,,,0.00,Wunderground v.1.15,2013-01-25 16:40:00,
2013-01-25 09:50:00,42.6,25.7,30.06,East,94,1.0,1.0,51,0.00,,,0.00,Wunderground v.1.15,2013-01-25 16:50:00,
2013-01-25 10:00:00,42.9,25.5,30.05,ESE,115,1.0,1.0,50,0.00,,,0.00,Wunderground v.1.15,2013-01-25 17:00:00,
2013-01-25 10:05:00,43.2,25.8,30.05,ESE,117,1.0,1.0,50,0.00,,,0.00,Wunderground v.1.15,2013-01-25 17:05:00,
2013-01-25 10:15:00,43.5,26.1,30.05,SE,139,1.0,2.0,50,0.00,,,0.00,Wunderground v.1.15,2013-01-25 17:15:00,
2013-01-25 10:20:00,43.6,26.6,30.05,SE,134,1.0,1.0,51,0.00,,,0.00,Wunderground v.1.15,2013-01-25 17:20:00,
2013-01-25 10:30:00,43.4,26.5,30.06,SE,133,1.0,1.0,51,0.00,,,0.00,Wunderground v.1.15,2013-01-25 17:30:00,
2013-01-25 10:35:00,43.3,26.4,30.06,SE,145,1.0,1.0,51,0.00,,,0.00,Wunderground v.1.15,2013-01-25 17:35:00,
2013-01-25 10:46:00,43.0,26.1,30.06,NE,53,1.0,1.0,51,0.00,,,0.00,Wunderground v.1.15,2013-01-25 17:46:00,
2013-01-25 11:15:00,43.3,26.8,30.05,SE,136,1.0,1.0,52,0.00,,,0.00,Wunderground v.1.15,2013-01-25 18:15:00,
2013-01-25 11:20:00,43.6,26.6,30.04,East,83,1.0,1.0,51,0.00,,,0.00,Wunderground v.1.15,2013-01-25 18:20:00,
2013-01-25 11:30:00,43.9,26.4,30.04,NE,56,1.0,2.0,50,0.00,,,0.00,Wunderground v.1.15,2013-01-25 18:30:00,
2013-01-25 11:40:00,44.3,26.8,30.04,ENE,67,1.0,1.0,50,0.00,,,0.00,Wunderground v.1.15,2013-01-25 18:40:00,
2013-01-25 11:45:00,45.3,26.7,30.04,SSE,163,1.0,1.0,48,0.00,,,0.00,Wunderground v.1.15,2013-01-25 18:45:00,
2013-01-25 12:00:00,47.3,27.0,30.02,NNE,27,1.0,1.0,45,0.00,,,0.00,Wunderground v.1.15,2013-01-25 19:00:00,
2013-01-25 12:10:00,48.5,26.4,30.02,SE,138,1.0,1.0,42,0.00,,,0.00,Wunderground v.1.15,2013-01-25 19:10:00,
2013-01-25 12:15:00,49.2,27.1,30.01,SSE,150,1.0,1.0,42,0.00,,,0.00,Wunderground v.1.15,2013-01-25 19:15:00,
2013-01-25 12:25:00,49.8,26.4,30.00,ESE,107,0.0,1.0,40,0.00,,,0.00,Wunderground v.1.15,2013-01-25 19:25:00,
2013-01-25 12:30:00,49.6,26.8,30.00,SE,139,1.0,1.0,41,0.00,,,0.00,Wunderground v.1.15,2013-01-25 19:30:00,
2013-01-25 12:35:00,49.7,26.9,30.00,SSE,167,0.0,1.0,41,0.00,,,0.00,Wunderground v.1.15,2013-01-25 19:35:00,
2013-01-25 12:45:00,50.7,27.2,29.99,South,172,1.0,1.0,40,0.00,,,0.00,Wunderground v.1.15,2013-01-25 19:45:00,
2013-01-25 13:00:00,50.9,26.2,29.99,SE,134,1.0,1.0,38,0.00,,,0.00,Wunderground v.1.15,2013-01-25 20:00:00,
2013-01-25 13:20:00,51.6,26.8,29.98,SE,142,2.0,2.0,38,0.00,,,0.00,Wunderground v.1.15,2013-01-25 20:20:00,
2013-01-25 13:40:00,50.7,26.6,29.98,SE,132,3.0,3.0,39,0.00,,,0.00,Wunderground v.1.15,2013-01-25 20:40:00,
2013-01-25 13:50:00,50.6,27.1,29.97,South,186,2.0,2.0,40,0.00,,,0.00,Wunderground v.1.15,2013-01-25 20:50:00,
2013-01-25 14:05:00,51.0,27.5,29.97,ESE,111,1.0,1.0,40,0.00,,,0.00,Wunderground v.1.15,2013-01-25 21:05:00,
2013-01-25 14:15:00,50.7,27.2,29.97,SW,226,0.0,1.0,40,0.00,,,0.00,Wunderground v.1.15,2013-01-25 21:15:00,
2013-01-25 14:25:00,50.3,26.9,29.97,WSW,257,0.0,0.0,40,0.00,,,0.00,Wunderground v.1.15,2013-01-25 21:25:00,
2013-01-25 14:35:00,50.1,27.3,29.97,WSW,257,0.0,0.0,41,0.00,,,0.00,Wunderground v.1.15,2013-01-25 21:35:00,
2013-01-25 14:46:00,51.3,27.2,29.97,SW,235,1.0,1.0,39,0.00,,,0.00,Wunderground v.1.15,2013-01-25 21:46:00,
2013-01-25 14:55:00,52.5,27.6,29.97,WSW,245,1.0,1.0,38,0.00,,,0.00,Wunderground v.1.15,2013-01-25 21:55:00,
2013-01-25 15:00:00,52.8,27.2,29.97,East,88,1.0,1.0,37,0.00,,,0.00,Wunderground v.1.15,2013-01-25 22:00:00,
2013-01-25 15:15:00,53.4,27.1,29.96,SE,135,0.0,0.0,36,0.00,,,0.00,Wunderground v.1.15,2013-01-25 22:15:00,
2013-01-25 15:25:00,53.8,27.4,29.96,SE,132,0.0,0.0,36,0.00,,,0.00,Wunderground v.1.15,2013-01-25 22:25:00,
2013-01-25 15:45:00,50.7,26.6,29.97,WNW,283,1.0,1.0,39,0.00,,,0.00,Wunderground v.1.15,2013-01-25 22:45:00,
2013-01-25 15:55:00,49.6,26.2,29.97,WSW,257,1.0,2.0,40,0.00,,,0.00,Wunderground v.1.15,2013-01-25 22:55:00,
2013-01-25 16:00:00,49.2,26.5,29.97,WSW,252,1.0,1.0,41,0.00,,,0.00,Wunderground v.1.15,2013-01-25 23:00:00,
2013-01-25 16:10:00,48.7,26.6,29.98,West,276,1.0,1.0,42,0.00,,,0.00,Wunderground v.1.15,2013-01-25 23:10:00,
2013-01-25 16:20:00,48.4,26.3,29.98,WSW,256,0.0,1.0,42,0.00,,,0.00,Wunderground v.1.15,2013-01-25 23:20:00,
2013-01-25 16:25:00,47.8,25.8,29.98,WSW,256,0.0,1.0,42,0.00,,,0.00,Wunderground v.1.15,2013-01-25 23:25:00,
2013-01-25 16:30:00,47.0,26.2,29.98,WSW,256,0.0,0.0,44,0.00,,,0.00,Wunderground v.1.15,2013-01-25 23:30:00,
2013-01-25 16:40:00,46.2,25.5,29.99,ENE,57,0.0,1.0,44,0.00,,,0.00,Wunderground v.1.15,2013-01-25 23:40:00,
2013-01-25 16:46:00,45.5,26.4,29.99,NNW,338,1.0,1.0,47,0.00,,,0.00,Wunderground v.1.15,2013-01-25 23:46:00,
2013-01-25 17:00:00,46.1,27.0,30.00,NNW,335,1.0,1.0,47,0.00,,,0.00,Wunderground v.1.15,2013-01-26 00:00:00,
2013-01-25 17:10:00,45.7,27.1,30.00,NNW,344,1.0,1.0,48,0.00,,,0.00,Wunderground v.1.15,2013-01-26 00:10:00,
2013-01-25 17:20:00,44.6,26.6,30.00,WSW,256,0.0,0.0,49,0.00,,,0.00,Wunderground v.1.15,2013-01-26 00:20:00,
2013-01-25 17:55:00,40.3,24.5,30.00,WSW,242,1.0,1.0,53,0.00,,,0.00,Wunderground v.1.15,2013-01-26 00:55:00,
2013-01-25 18:15:00,39.6,25.2,30.00,NW,311,1.0,2.0,56,0.00,,,0.00,Wunderground v.1.15,2013-01-26 01:15:00,
2013-01-25 18:30:00,40.4,25.1,30.01,SSE,166,1.0,1.0,54,0.00,,,0.00,Wunderground v.1.15,2013-01-26 01:30:00,
2013-01-25 18:35:00,39.6,24.7,30.01,North,352,1.0,2.0,55,0.00,,,0.00,Wunderground v.1.15,2013-01-26 01:35:00,
2013-01-25 18:40:00,39.4,25.0,30.01,NNW,342,1.0,1.0,56,0.00,,,0.00,Wunderground v.1.15,2013-01-26 01:40:00,
2013-01-25 18:50:00,38.8,25.3,30.01,West,278,1.0,2.0,58,0.00,,,0.00,Wunderground v.1.15,2013-01-26 01:50:00,
2013-01-25 18:55:00,39.7,24.8,30.01,NE,47,1.0,2.0,55,0.00,,,0.00,Wunderground v.1.15,2013-01-26 01:55:00,
2013-01-25 19:25:00,37.7,23.8,30.02,NE,53,1.0,1.0,57,0.00,,,0.00,Wunderground v.1.15,2013-01-26 02:25:00,
2013-01-25 19:30:00,37.4,24.0,30.03,SSE,163,1.0,1.0,58,0.00,,,0.00,Wunderground v.1.15,2013-01-26 02:30:00,
2013-01-25 19:45:00,36.1,23.5,30.02,ENE,78,1.0,1.0,60,0.00,,,0.00,Wunderground v.1.15,2013-01-26 02:45:00,
2013-01-25 19:50:00,35.8,23.3,30.03,ENE,78,0.0,1.0,60,0.00,,,0.00,Wunderground v.1.15,2013-01-26 02:50:00,
2013-01-25 20:00:00,35.9,23.7,30.02,WSW,245,0.0,3.0,61,0.00,,,0.00,Wunderground v.1.15,2013-01-26 03:00:00,
2013-01-25 20:15:00,35.2,23.5,30.01,NE,56,0.0,1.0,62,0.00,,,0.00,Wunderground v.1.15,2013-01-26 03:15:00,
2013-01-25 20:25:00,36.9,25.5,30.02,NW,306,1.0,3.0,63,0.00,,,0.00,Wunderground v.1.15,2013-01-26 03:25:00,
2013-01-25 20:30:00,39.6,25.6,30.02,WSW,246,2.0,3.0,57,0.00,,,0.00,Wunderground v.1.15,2013-01-26 03:30:00,
2013-01-25 20:40:00,40.3,24.5,30.02,ESE,116,1.0,1.0,53,0.00,,,0.00,Wunderground v.1.15,2013-01-26 03:40:00,
2013-01-25 20:55:00,39.0,23.7,30.02,NE,44,1.0,1.0,54,0.00,,,0.00,Wunderground v.1.15,2013-01-26 03:55:00,
2013-01-25 21:05:00,37.1,23.3,30.02,NE,44,0.0,1.0,57,0.00,,,0.00,Wunderground v.1.15,2013-01-26 04:05:00,
2013-01-25 21:10:00,36.5,23.1,30.02,NE,43,0.0,1.0,58,0.00,,,0.00,Wunderground v.1.15,2013-01-26 04:10:00,
2013-01-25 21:25:00,36.5,25.1,30.02,ENE,60,1.0,1.0,63,0.00,,,0.00,Wunderground v.1.15,2013-01-26 04:25:00,
2013-01-25 21:35:00,38.9,24.5,30.03,SSE,147,1.0,1.0,56,0.00,,,0.00,Wunderground v.1.15,2013-01-26 04:35:00,
2013-01-25 21:45:00,36.8,23.4,30.02,ENE,70,0.0,1.0,58,0.00,,,0.00,Wunderground v.1.15,2013-01-26 04:45:00,
2013-01-25 22:10:00,39.0,24.6,30.01,ENE,75,2.0,2.0,56,0.00,,,0.00,Wunderground v.1.15,2013-01-26 05:10:00,
2013-01-25 22:20:00,39.4,23.7,30.02,WNW,292,3.0,3.0,53,0.00,,,0.00,Wunderground v.1.15,2013-01-26 05:20:00,
2013-01-25 22:35:00,37.6,23.3,30.02,West,278,2.0,7.0,56,0.00,,,0.00,Wunderground v.1.15,2013-01-26 05:35:00,
2013-01-25 22:50:00,37.6,24.1,30.02,SE,132,3.0,3.0,58,0.00,,,0.00,Wunderground v.1.15,2013-01-26 05:50:00,
2013-01-25 22:55:00,36.8,23.8,30.01,SW,228,1.0,3.0,59,0.00,,,0.00,Wunderground v.1.15,2013-01-26 05:55:00,
2013-01-25 23:05:00,35.5,23.8,30.01,NNW,340,2.0,2.0,62,0.00,,,0.00,Wunderground v.1.15,2013-01-26 06:05:00,
2013-01-25 23:30:00,36.8,25.0,30.01,North,7,2.0,2.0,62,0.00,,,0.00,Wunderground v.1.15,2013-01-26 06:30:00,
2013-01-25 23:35:00,36.7,23.3,30.02,NNW,340,2.0,3.0,58,0.00,,,0.00,Wunderground v.1.15,2013-01-26 06:35:00,
2013-01-25 23:50:00,35.1,23.4,30.01,SSE,166,0.0,0.0,62,0.00,,,0.00,Wunderground v.1.15,2013-01-26 06:50:00,
2013-01-25 23:55:00,34.7,23.4,30.01,NNW,347,0.0,2.0,63,0.00,,,0.00,Wunderground v.1.15,2013-01-26 06:55:00,